Elbow Lake, Minnesota
Current Conditions -  °F | °C
As of 12:15 AM on Sunday 26 Oct 2014 (Local Time) from KY63 Reporting Station
Clear Clear  
Wind Chill:   Ceiling: Unl
Heat Index:   Visibility: 10mi
Dew Point: -1°   Wind: 5mph
Humidity: 64%   Direction: 140°SE
Pressure: 30.02"   Gusts: NA
Location:  45.99°N, 95.98°W
Report Text: KY63 260515Z AUTO 14004KT 10SM CLR 05/M01 A3002 RMK AO2 T00521012
Loading
Personal Weather Stations






























Interactive Weather Map
Tropical Storm Tracking
New forecast layout! Learn more

10-Day Weather Forecast

Advertisements
Track Severe Weather on mobile